Time;durP1;ratioP1;P1;durP2;ratioP2;P2;SDS_P1;SDS_P2;PMS_P1;PMS_P2;Temp;Humidity;BMP_temperature;BMP_pressure;BME280_temperature;BME280_humidity;BME280_pressure;Samples;Min_cycle;Max_cycle;Signal;HPM_P1;HPM_P2
2022/01/18 00:01:10;;;;;;;27.53;4.80;;;3.30;99.90;;;;;;4957407;28;20185;-93
2022/01/18 00:03:36;;;;;;;30.50;4.77;;;3.30;99.90;;;;;;4959195;28;20213;-93
2022/01/18 00:06:03;;;;;;;25.33;4.47;;;3.30;99.90;;;;;;4959212;28;20276;-94
2022/01/18 00:08:28;;;;;;;18.50;4.30;;;3.30;99.90;;;;;;4959141;28;20197;-93
2022/01/18 00:10:54;;;;;;;31.73;4.80;;;3.30;99.90;;;;;;4959397;28;20189;-93
2022/01/18 00:13:36;;;;;;;26.37;4.67;;;3.40;99.90;;;;;;4959342;28;20679;-93
2022/01/18 00:18:33;;;;;;;29.80;4.87;;;3.50;99.90;;;;;;4960067;28;20174;-94
2022/01/18 00:21:23;;;;;;;32.30;4.87;;;3.60;99.90;;;;;;4958684;28;20226;-93
2022/01/18 00:23:45;;;;;;;28.53;4.40;;;3.70;99.90;;;;;;4960105;28;20236;-93
2022/01/18 00:29:12;;;;;;;32.17;4.77;;;3.90;99.90;;;;;;4892480;29;20219;-93
2022/01/18 00:31:59;;;;;;;35.33;4.87;;;3.90;99.90;;;;;;4883119;29;20243;-93
2022/01/18 00:34:30;;;;;;;27.70;4.70;;;4.00;99.90;;;;;;4883021;29;20188;-94
2022/01/18 00:39:25;;;;;;;26.73;4.53;;;4.00;99.90;;;;;;4884234;29;20188;-91
2022/01/18 00:41:51;;;;;;;27.97;4.50;;;4.00;99.90;;;;;;4901197;29;20187;-91
2022/01/18 00:44:17;;;;;;;31.23;5.87;;;3.90;99.90;;;;;;4901369;29;20278;-91
2022/01/18 00:46:44;;;;;;;19.60;4.70;;;4.00;99.90;;;;;;4901320;29;20187;-91
2022/01/18 00:49:12;;;;;;;25.70;4.43;;;3.90;99.90;;;;;;4901292;29;20188;-91
2022/01/18 00:51:39;;;;;;;20.60;4.30;;;3.90;99.90;;;;;;4900961;29;20191;-92
2022/01/18 00:54:08;;;;;;;27.13;4.77;;;3.80;99.90;;;;;;4901331;29;20191;-90
2022/01/18 00:56:38;;;;;;;30.40;4.73;;;3.80;99.90;;;;;;4901044;29;20179;-90
2022/01/18 00:59:04;;;;;;;37.30;5.70;;;3.90;99.90;;;;;;4901315;29;20180;-92
2022/01/18 01:01:30;;;;;;;32.27;5.57;;;3.90;99.90;;;;;;4901235;29;20259;-91
2022/01/18 01:04:00;;;;;;;27.77;5.10;;;3.90;99.90;;;;;;4900802;29;20271;-91
2022/01/18 01:06:26;;;;;;;32.67;4.80;;;3.90;99.90;;;;;;4900945;29;20264;-91
2022/01/18 01:08:52;;;;;;;31.53;5.13;;;3.90;99.90;;;;;;4901138;29;20232;-91
2022/01/18 01:11:19;;;;;;;40.87;6.53;;;4.00;99.90;;;;;;4901088;29;20262;-91
2022/01/18 01:13:48;;;;;;;30.90;5.13;;;4.00;99.90;;;;;;4899931;29;20184;-91
2022/01/18 01:35:26;;;;;;;41.87;5.83;;;4.40;99.90;;;;;;4901776;29;20222;-91
2022/01/18 01:43:27;;;;;;;27.27;4.80;;;4.40;99.90;;;;;;4901721;29;20239;-91
2022/01/18 01:45:54;;;;;;;30.40;4.57;;;4.40;99.90;;;;;;4900363;29;20195;-91
2022/01/18 01:48:22;;;;;;;44.70;5.20;;;4.40;99.90;;;;;;4900225;29;20508;-91
2022/01/18 01:50:53;;;;;;;23.57;4.07;;;4.40;99.90;;;;;;4900225;29;20186;-90
2022/01/18 01:53:21;;;;;;;23.13;4.90;;;4.40;99.90;;;;;;4900593;29;20186;-91
2022/01/18 01:55:48;;;;;;;25.07;4.60;;;4.40;99.90;;;;;;4899896;29;20635;-91
2022/01/18 01:58:14;;;;;;;28.60;4.67;;;4.50;99.90;;;;;;4900092;29;20215;-90
2022/01/18 02:00:53;;;;;;;32.83;5.00;;;4.50;99.90;;;;;;4900301;29;20218;-91
2022/01/18 02:03:19;;;;;;;25.30;4.47;;;4.50;99.90;;;;;;4901086;29;20203;-91
2022/01/18 02:05:45;;;;;;;20.83;4.03;;;4.50;99.90;;;;;;4899709;29;20286;-91
2022/01/18 02:08:12;;;;;;;28.73;4.10;;;4.50;99.90;;;;;;4899974;29;20687;-91
2022/01/18 02:10:39;;;;;;;31.83;4.80;;;4.40;99.90;;;;;;4899979;29;20180;-91
2022/01/18 02:13:06;;;;;;;26.70;4.40;;;4.40;99.90;;;;;;4899789;29;20225;-91
2022/01/18 02:15:38;;;;;;;30.87;4.30;;;4.30;99.90;;;;;;4899690;29;20222;-90
2022/01/18 02:23:32;;;;;;;37.43;4.40;;;4.30;99.90;;;;;;4900337;29;20235;-91
2022/01/18 02:25:58;;;;;;;29.80;4.23;;;4.30;99.90;;;;;;4899274;29;20195;-90
2022/01/18 02:28:25;;;;;;;29.23;4.47;;;4.20;99.90;;;;;;4899406;29;20226;-90
2022/01/18 02:30:52;;;;;;;24.77;4.00;;;4.20;99.90;;;;;;4899650;29;20191;-90
2022/01/18 02:33:18;;;;;;;33.10;4.50;;;4.30;99.90;;;;;;4899609;29;20190;-90
2022/01/18 02:35:45;;;;;;;23.70;4.10;;;4.30;99.90;;;;;;4899234;29;20285;-90
2022/01/18 02:38:11;;;;;;;30.13;5.13;;;4.50;99.90;;;;;;4899716;29;20711;-91
2022/01/18 02:40:37;;;;;;;25.53;4.47;;;4.50;99.90;;;;;;4899251;29;20274;-91
2022/01/18 02:45:51;;;;;;;22.67;3.90;;;4.60;99.90;;;;;;4900277;29;20657;-92
2022/01/18 02:48:17;;;;;;;20.80;3.50;;;4.70;99.90;;;;;;4899416;29;20179;-91
2022/01/18 02:50:43;;;;;;;24.23;3.97;;;4.70;99.90;;;;;;4899967;29;20191;-91
2022/01/18 02:53:09;;;;;;;24.57;3.60;;;4.80;99.90;;;;;;4899336;29;20516;-91
2022/01/18 02:55:35;;;;;;;22.07;3.90;;;4.90;99.90;;;;;;4899211;29;20179;-92
2022/01/18 02:58:08;;;;;;;17.70;3.33;;;4.90;99.90;;;;;;4899245;29;20367;-91
2022/01/18 03:03:24;;;;;;;18.17;2.97;;;4.90;99.90;;;;;;4900578;29;20339;-91
2022/01/18 03:05:50;;;;;;;15.47;3.50;;;5.00;99.90;;;;;;4898985;29;20577;-91
2022/01/18 03:08:17;;;;;;;20.10;3.57;;;5.00;99.90;;;;;;4898958;29;20179;-91
2022/01/18 03:10:43;;;;;;;24.93;3.70;;;5.00;99.90;;;;;;4899064;29;20179;-92
2022/01/18 03:13:08;;;;;;;22.50;4.07;;;5.00;99.90;;;;;;4899047;29;20187;-92
2022/01/18 03:15:35;;;;;;;10.60;2.83;;;5.10;99.90;;;;;;4898842;29;20179;-91
2022/01/18 03:18:08;;;;;;;17.77;2.87;;;5.10;99.90;;;;;;4898922;29;20194;-91
2022/01/18 03:20:36;;;;;;;18.10;2.77;;;5.00;99.90;;;;;;4899028;29;20183;-90
2022/01/18 03:23:02;;;;;;;14.93;2.60;;;5.00;99.90;;;;;;4899174;29;20197;-90
2022/01/18 03:28:05;;;;;;;14.63;2.83;;;5.10;99.90;;;;;;4899941;29;20238;-94
2022/01/18 03:30:42;;;;;;;16.73;2.90;;;5.10;99.90;;;;;;4898741;29;20217;-94
2022/01/18 03:33:11;;;;;;;14.63;2.97;;;5.10;99.90;;;;;;4899050;29;20218;-93
2022/01/18 03:35:38;;;;;;;21.27;2.97;;;5.10;99.90;;;;;;4899116;29;20183;-93
2022/01/18 03:38:04;;;;;;;15.80;2.40;;;5.10;99.90;;;;;;4902575;29;20635;-93
2022/01/18 03:40:29;;;;;;;24.23;3.17;;;5.00;99.90;;;;;;4902593;29;20327;-93
2022/01/18 03:42:58;;;;;;;13.87;2.83;;;5.10;99.90;;;;;;4902736;29;20245;-93
2022/01/18 03:45:29;;;;;;;17.93;3.17;;;5.10;99.90;;;;;;4902388;29;20246;-93
2022/01/18 03:47:57;;;;;;;17.17;3.60;;;5.00;99.90;;;;;;4902420;29;20510;-93
2022/01/18 03:50:24;;;;;;;17.00;3.00;;;5.10;99.90;;;;;;4902302;29;20282;-94
2022/01/18 03:52:50;;;;;;;17.57;2.80;;;5.00;99.90;;;;;;4902524;29;20168;-92
2022/01/18 03:55:20;;;;;;;18.03;3.20;;;5.00;99.90;;;;;;4902433;29;20535;-93
2022/01/18 03:57:46;;;;;;;15.97;2.77;;;5.00;99.90;;;;;;4902350;29;20183;-94
2022/01/18 04:00:15;;;;;;;18.23;2.47;;;5.00;99.90;;;;;;4902351;29;20274;-94
2022/01/18 04:02:41;;;;;;;12.77;2.40;;;5.10;99.90;;;;;;4902323;29;20193;-93
2022/01/18 04:05:07;;;;;;;10.97;2.30;;;5.10;99.90;;;;;;4901650;29;20271;-94
2022/01/18 04:07:33;;;;;;;12.57;2.93;;;5.10;99.90;;;;;;4901802;29;20266;-94
2022/01/18 04:10:00;;;;;;;13.60;2.60;;;5.10;99.90;;;;;;4902053;29;20210;-94
2022/01/18 04:12:26;;;;;;;12.10;2.20;;;5.10;99.90;;;;;;4902165;29;20636;-94
2022/01/18 04:14:51;;;;;;;9.27;1.80;;;5.20;99.90;;;;;;4902364;29;20183;-93
2022/01/18 04:27:49;;;;;;;8.07;1.90;;;5.20;99.90;;;;;;4902808;29;20318;-94
2022/01/18 04:30:15;;;;;;;11.33;2.27;;;5.20;99.90;;;;;;4901932;29;20203;-93
2022/01/18 04:32:40;;;;;;;7.87;1.70;;;5.20;99.90;;;;;;4901775;29;20179;-94
2022/01/18 04:35:07;;;;;;;13.13;1.43;;;5.20;99.90;;;;;;4901251;29;20632;-93
2022/01/18 04:37:32;;;;;;;11.97;2.00;;;5.30;99.90;;;;;;4901712;29;20179;-94
2022/01/18 04:39:59;;;;;;;8.10;1.73;;;5.20;99.90;;;;;;4901571;29;20621;-93
2022/01/18 04:42:47;;;;;;;10.07;2.10;;;5.20;99.90;;;;;;4901698;29;20322;-93
2022/01/18 04:50:41;;;;;;;6.60;1.43;;;5.20;99.90;;;;;;4889536;29;20225;-94
2022/01/18 04:53:07;;;;;;;6.33;1.50;;;5.10;99.90;;;;;;4901061;29;20187;-94
2022/01/18 04:55:33;;;;;;;8.50;1.80;;;5.10;99.90;;;;;;4901466;29;20630;-95
2022/01/18 04:57:59;;;;;;;13.13;2.80;;;5.10;99.90;;;;;;4901307;29;20191;-94
2022/01/18 05:00:25;;;;;;;11.13;1.90;;;5.20;99.90;;;;;;4901430;29;20187;-90
2022/01/18 05:02:52;;;;;;;9.80;2.00;;;5.20;99.90;;;;;;4901212;29;20175;-90
2022/01/18 05:05:31;;;;;;;16.07;2.40;;;5.10;99.90;;;;;;4898777;29;20215;-92
2022/01/18 05:08:01;;;;;;;13.50;2.13;;;5.10;99.90;;;;;;4883154;29;20188;-91
2022/01/18 05:10:29;;;;;;;4.70;1.50;;;5.00;99.90;;;;;;4901019;29;20194;-91
2022/01/18 05:12:57;;;;;;;8.70;1.20;;;5.00;99.90;;;;;;4901032;29;20198;-91
2022/01/18 05:21:07;;;;;;;13.67;2.83;;;5.00;99.90;;;;;;4901815;29;20210;-90
2022/01/18 05:23:27;;;;;;;15.03;3.40;;;5.00;99.90;;;;;;4901865;29;20215;-90
2022/01/18 05:25:53;;;;;;;10.83;2.03;;;4.90;99.90;;;;;;4900766;29;20274;-91
2022/01/18 05:28:18;;;;;;;7.17;1.73;;;4.80;99.90;;;;;;4900666;29;20246;-90
2022/01/18 05:30:44;;;;;;;11.97;2.80;;;4.90;99.90;;;;;;4900687;29;20527;-91
2022/01/18 05:33:10;;;;;;;11.07;2.63;;;4.90;99.90;;;;;;4900524;29;20563;-90
2022/01/18 05:35:35;;;;;;;12.60;2.37;;;4.80;99.90;;;;;;4899836;29;20211;-90
2022/01/18 05:38:01;;;;;;;9.87;2.40;;;4.80;99.90;;;;;;4900490;29;20219;-91
2022/01/18 05:40:27;;;;;;;8.63;2.53;;;4.80;99.90;;;;;;4900571;29;20205;-91
2022/01/18 05:42:53;;;;;;;13.77;1.93;;;4.80;99.90;;;;;;4900019;29;20239;-91
2022/01/18 05:45:20;;;;;;;13.03;1.83;;;4.80;99.90;;;;;;4900410;29;20282;-91
2022/01/18 05:47:46;;;;;;;15.93;2.60;;;4.70;99.90;;;;;;4900300;29;20179;-91
2022/01/18 05:50:13;;;;;;;10.73;1.70;;;4.60;99.90;;;;;;4899300;29;20623;-90
2022/01/18 05:52:41;;;;;;;9.93;1.90;;;4.60;99.90;;;;;;4901051;29;20194;-91
2022/01/18 05:55:08;;;;;;;14.47;1.90;;;4.60;99.90;;;;;;4900472;29;20241;-91
2022/01/18 05:57:33;;;;;;;13.53;2.17;;;4.50;99.90;;;;;;4899881;29;20218;-90
2022/01/18 06:00:05;;;;;;;10.43;1.73;;;4.50;99.90;;;;;;4899155;29;20274;-90
2022/01/18 06:02:47;;;;;;;11.73;2.13;;;4.50;99.90;;;;;;4899897;29;20227;-90
2022/01/18 06:07:57;;;;;;;11.90;2.03;;;4.50;99.90;;;;;;4901094;29;20274;-91
2022/01/18 06:10:23;;;;;;;11.23;1.80;;;4.50;99.90;;;;;;4899741;29;20211;-90
2022/01/18 06:12:48;;;;;;;11.87;2.30;;;4.50;99.90;;;;;;4899585;29;20189;-91
2022/01/18 06:15:14;;;;;;;19.50;2.87;;;4.50;99.90;;;;;;4899823;29;20311;-91
2022/01/18 06:17:40;;;;;;;15.83;2.80;;;4.50;99.90;;;;;;4888511;29;20191;-91
2022/01/18 06:20:07;;;;;;;12.67;2.73;;;4.60;99.90;;;;;;4895726;29;20614;-91
2022/01/18 06:22:32;;;;;;;15.43;3.20;;;4.60;99.90;;;;;;4899864;29;20580;-91
2022/01/18 06:24:58;;;;;;;11.77;2.30;;;4.60;99.90;;;;;;4900414;29;20211;-91
2022/01/18 06:27:24;;;;;;;15.30;2.57;;;4.60;99.90;;;;;;4899025;29;20218;-90
2022/01/18 06:29:50;;;;;;;16.17;2.53;;;4.60;99.90;;;;;;4899149;29;20631;-92
2022/01/18 06:32:16;;;;;;;16.30;2.87;;;4.50;99.90;;;;;;4899260;29;20587;-91
2022/01/18 06:34:41;;;;;;;15.27;2.83;;;4.50;99.90;;;;;;4886765;29;20191;-91
2022/01/18 06:37:07;;;;;;;8.87;1.57;;;4.60;99.90;;;;;;4880682;29;20279;-91
2022/01/18 06:39:33;;;;;;;15.10;2.40;;;4.70;99.90;;;;;;4899140;29;20195;-91
2022/01/18 06:41:59;;;;;;;11.80;3.20;;;4.60;99.90;;;;;;4898858;29;20531;-90
2022/01/18 06:44:25;;;;;;;14.83;3.60;;;4.60;99.90;;;;;;4898600;29;20250;-90
2022/01/18 06:46:52;;;;;;;8.80;2.67;;;4.60;99.90;;;;;;4896801;29;20210;-91
2022/01/18 06:49:18;;;;;;;13.80;3.40;;;4.70;99.90;;;;;;4880653;29;20184;-90
2022/01/18 06:51:44;;;;;;;12.17;2.87;;;4.70;99.90;;;;;;4894785;29;20187;-91
2022/01/18 06:54:17;;;;;;;10.87;2.70;;;4.70;99.90;;;;;;4898894;29;20183;-91
2022/01/18 06:56:46;;;;;;;9.47;2.30;;;4.70;99.90;;;;;;4899040;29;20183;-91
2022/01/18 06:59:13;;;;;;;10.70;2.50;;;4.70;99.90;;;;;;4898752;29;20277;-91
2022/01/18 07:01:41;;;;;;;7.83;2.30;;;4.70;99.90;;;;;;4895868;29;20271;-89
2022/01/18 07:04:07;;;;;;;12.73;2.50;;;4.70;99.90;;;;;;4888112;29;20223;-91
2022/01/18 07:06:34;;;;;;;12.53;2.13;;;4.70;99.90;;;;;;4898355;29;20507;-91
2022/01/18 07:09:01;;;;;;;8.23;2.00;;;4.70;99.90;;;;;;4898178;29;20534;-91
2022/01/18 07:11:27;;;;;;;8.33;2.10;;;4.60;99.90;;;;;;4898742;29;20190;-91
2022/01/18 07:13:53;;;;;;;8.47;1.93;;;4.60;99.90;;;;;;4897695;29;20195;-91
2022/01/18 07:16:18;;;;;;;8.17;1.50;;;4.50;99.90;;;;;;4898939;29;20191;-91
2022/01/18 07:18:44;;;;;;;7.33;1.87;;;4.50;99.90;;;;;;4898681;29;20638;-91
2022/01/18 07:21:10;;;;;;;15.93;2.10;;;4.50;99.90;;;;;;4898564;29;20199;-91
2022/01/18 07:23:37;;;;;;;8.00;1.60;;;4.40;99.90;;;;;;4898359;29;20682;-91
2022/01/18 07:26:03;;;;;;;7.40;1.83;;;4.40;99.90;;;;;;4897716;29;20229;-91
2022/01/18 07:28:29;;;;;;;5.47;1.53;;;4.30;99.90;;;;;;4898654;29;20670;-92
2022/01/18 07:30:55;;;;;;;11.67;2.27;;;4.30;99.90;;;;;;4897906;29;20187;-91
2022/01/18 07:33:20;;;;;;;6.63;1.67;;;4.30;99.90;;;;;;4899153;29;20273;-91
2022/01/18 07:35:47;;;;;;;3.83;1.50;;;4.30;99.90;;;;;;4880426;29;20278;-92
2022/01/18 07:38:16;;;;;;;8.33;1.53;;;4.30;99.90;;;;;;4880150;29;20571;-91
2022/01/18 07:40:44;;;;;;;7.03;1.60;;;4.30;99.90;;;;;;4880647;29;20187;-91
2022/01/18 07:43:11;;;;;;;5.33;1.37;;;4.30;99.90;;;;;;4898803;29;20187;-91
2022/01/18 07:45:37;;;;;;;5.73;1.30;;;4.20;99.90;;;;;;4898495;29;20179;-91
2022/01/18 07:48:03;;;;;;;10.80;2.23;;;4.30;99.90;;;;;;4898571;29;20277;-91
2022/01/18 07:50:28;;;;;;;4.43;1.53;;;4.30;99.90;;;;;;4898321;29;20219;-91
2022/01/18 07:52:55;;;;;;;9.50;2.23;;;4.30;99.90;;;;;;4898550;29;20183;-91
2022/01/18 07:55:20;;;;;;;6.23;1.63;;;4.30;99.90;;;;;;4898685;29;20172;-91
2022/01/18 07:57:46;;;;;;;6.73;2.23;;;4.40;99.90;;;;;;4898410;29;20269;-91
2022/01/18 08:00:15;;;;;;;6.90;1.80;;;4.40;99.90;;;;;;4898533;29;20238;-91
2022/01/18 08:02:42;;;;;;;6.47;2.37;;;4.50;99.90;;;;;;4898779;29;20191;-90
2022/01/18 08:05:08;;;;;;;7.90;1.70;;;4.50;99.90;;;;;;4899272;29;20219;-91
2022/01/18 08:07:35;;;;;;;8.30;1.90;;;4.50;99.90;;;;;;4898027;29;20188;-91
2022/01/18 08:10:02;;;;;;;5.73;2.00;;;4.50;99.90;;;;;;4898476;29;20274;-91
2022/01/18 08:12:27;;;;;;;9.30;2.30;;;4.60;99.90;;;;;;4898392;29;20278;-91
2022/01/18 08:14:59;;;;;;;8.87;2.50;;;4.60;99.90;;;;;;4898472;29;20266;-91
2022/01/18 08:17:25;;;;;;;4.90;2.20;;;4.60;99.90;;;;;;4898353;29;20609;-91
2022/01/18 08:19:51;;;;;;;8.10;2.60;;;4.60;99.90;;;;;;4898361;29;20211;-91
2022/01/18 08:22:17;;;;;;;7.53;2.53;;;4.60;99.90;;;;;;4899492;29;20226;-90
2022/01/18 08:24:43;;;;;;;7.90;2.87;;;4.70;99.90;;;;;;4901939;29;20222;-90
2022/01/18 08:27:09;;;;;;;9.07;2.57;;;4.70;99.90;;;;;;4900700;29;20258;-91
2022/01/18 08:29:36;;;;;;;7.60;2.40;;;4.70;99.90;;;;;;4901961;29;20641;-90
2022/01/18 08:32:04;;;;;;;8.23;2.50;;;4.80;99.90;;;;;;4902080;29;20183;-90
2022/01/18 08:34:30;;;;;;;8.60;2.90;;;4.80;99.90;;;;;;4901091;29;20203;-91
2022/01/18 08:36:55;;;;;;;9.97;2.63;;;4.80;99.90;;;;;;4900642;29;20183;-91
2022/01/18 08:39:21;;;;;;;8.13;2.93;;;5.00;99.90;;;;;;4901669;29;20231;-91
2022/01/18 08:41:47;;;;;;;10.77;2.47;;;5.10;99.90;;;;;;4884888;29;20271;-90
2022/01/18 08:44:13;;;;;;;6.73;2.47;;;5.10;99.90;;;;;;4882833;29;20215;-90
2022/01/18 08:46:38;;;;;;;10.43;2.93;;;5.10;99.90;;;;;;4882967;29;20180;-91
2022/01/18 08:49:06;;;;;;;11.20;2.60;;;5.20;99.90;;;;;;4882696;29;20182;-91
2022/01/18 08:51:32;;;;;;;8.33;2.60;;;5.20;99.90;;;;;;4897242;29;20746;-90
2022/01/18 08:53:59;;;;;;;10.97;3.10;;;5.20;99.90;;;;;;4901615;29;20199;-92
2022/01/18 08:56:27;;;;;;;15.17;4.57;;;5.20;99.90;;;;;;4900866;29;20206;-90
2022/01/18 08:58:52;;;;;;;14.47;4.17;;;5.20;99.90;;;;;;4901453;29;20551;-93
2022/01/18 09:01:18;;;;;;;6.13;2.63;;;5.30;99.90;;;;;;4900851;29;20183;-94
2022/01/18 09:03:45;;;;;;;12.07;3.37;;;5.20;99.90;;;;;;4896838;29;20261;-93
2022/01/18 09:06:16;;;;;;;10.23;3.23;;;5.20;99.90;;;;;;4897750;29;20195;-93
2022/01/18 09:08:42;;;;;;;18.93;3.90;;;5.30;99.90;;;;;;4899599;29;20213;-94
2022/01/18 09:11:11;;;;;;;8.83;3.27;;;5.30;99.90;;;;;;4900992;29;20187;-91
2022/01/18 09:13:37;;;;;;;11.10;2.93;;;5.30;99.90;;;;;;4900901;29;20243;-91
2022/01/18 09:16:06;;;;;;;8.10;3.40;;;5.30;99.90;;;;;;4900874;29;20211;-91
2022/01/18 09:18:32;;;;;;;6.70;3.03;;;5.30;99.90;;;;;;4900164;29;20215;-91
2022/01/18 09:20:58;;;;;;;8.23;3.40;;;5.30;99.90;;;;;;4900688;29;20186;-91
2022/01/18 09:23:26;;;;;;;14.20;3.73;;;5.20;99.90;;;;;;4900735;29;20258;-91
2022/01/18 09:25:51;;;;;;;13.00;3.97;;;5.30;99.90;;;;;;4900808;29;20282;-91
2022/01/18 09:28:17;;;;;;;14.43;4.33;;;5.40;99.90;;;;;;4900721;29;20323;-92
2022/01/18 09:30:43;;;;;;;16.73;4.87;;;5.40;99.90;;;;;;4900767;29;20187;-91
2022/01/18 09:33:09;;;;;;;13.27;4.50;;;5.40;99.90;;;;;;4899843;29;20183;-91
2022/01/18 09:35:36;;;;;;;11.13;3.93;;;5.40;99.90;;;;;;4900322;29;20194;-91
2022/01/18 09:38:03;;;;;;;9.33;4.60;;;5.50;99.90;;;;;;4900541;29;20190;-92
2022/01/18 09:40:30;;;;;;;13.63;4.13;;;5.50;99.90;;;;;;4900613;29;20183;-91
2022/01/18 09:42:59;;;;;;;14.00;4.60;;;5.50;99.90;;;;;;4900439;29;20212;-91
2022/01/18 09:45:28;;;;;;;11.60;4.77;;;5.60;99.90;;;;;;4900320;29;20199;-91
2022/01/18 09:47:55;;;;;;;10.33;4.27;;;5.60;99.90;;;;;;4900304;29;20183;-91
2022/01/18 09:50:27;;;;;;;12.60;4.93;;;5.70;99.90;;;;;;4900697;29;20210;-91
2022/01/18 09:52:55;;;;;;;9.27;4.97;;;5.70;99.90;;;;;;4900388;29;20626;-91
2022/01/18 09:55:26;;;;;;;13.17;5.87;;;5.70;99.90;;;;;;4900394;29;20186;-92
2022/01/18 09:57:56;;;;;;;13.63;5.53;;;5.80;99.90;;;;;;4900236;29;20190;-91
2022/01/18 10:00:23;;;;;;;12.30;5.60;;;5.80;99.90;;;;;;4900459;29;20185;-91
2022/01/18 10:02:49;;;;;;;12.47;6.43;;;5.90;99.90;;;;;;4900317;29;20614;-91
2022/01/18 10:05:30;;;;;;;13.77;6.70;;;6.00;99.90;;;;;;4883876;29;20234;-92
2022/01/18 10:08:04;;;;;;;11.07;6.43;;;6.00;99.90;;;;;;4881322;29;20202;-91
2022/01/18 10:10:40;;;;;;;16.60;7.10;;;6.10;99.90;;;;;;4881294;29;20635;-91
2022/01/18 10:13:07;;;;;;;13.73;6.20;;;6.10;99.90;;;;;;4881394;29;20202;-91
2022/01/18 10:15:34;;;;;;;14.73;6.37;;;6.20;99.90;;;;;;4881160;29;20184;-91
2022/01/18 10:18:08;;;;;;;11.70;6.20;;;6.30;99.90;;;;;;4881499;29;20531;-91
2022/01/18 10:21:01;;;;;;;13.23;6.57;;;6.30;99.90;;;;;;4897551;29;20187;-91
2022/01/18 10:23:27;;;;;;;13.37;6.40;;;6.30;99.90;;;;;;4897365;29;20210;-91
2022/01/18 10:25:53;;;;;;;13.27;6.10;;;6.50;99.90;;;;;;4900156;29;20689;-91
2022/01/18 10:28:33;;;;;;;15.20;6.03;;;6.50;99.90;;;;;;4899514;29;20313;-92
2022/01/18 10:31:05;;;;;;;13.10;6.30;;;6.60;99.90;;;;;;4899655;29;20183;-91
2022/01/18 10:33:36;;;;;;;12.87;5.97;;;6.60;99.90;;;;;;4899204;29;20619;-92
2022/01/18 10:36:09;;;;;;;11.03;5.73;;;6.70;99.90;;;;;;4899813;29;20302;-91
2022/01/18 10:38:36;;;;;;;12.03;6.17;;;6.80;99.90;;;;;;4899397;29;20231;-91
2022/01/18 10:41:21;;;;;;;9.97;5.70;;;6.70;99.90;;;;;;4899401;29;20231;-91
2022/01/18 10:44:08;;;;;;;10.90;6.30;;;6.80;99.90;;;;;;4899320;29;20334;-92
2022/01/18 10:46:49;;;;;;;11.63;5.70;;;6.90;99.90;;;;;;4899184;29;20204;-91
2022/01/18 10:49:27;;;;;;;13.77;6.27;;;6.90;99.90;;;;;;4899500;29;20638;-91
2022/01/18 10:52:11;;;;;;;13.27;6.20;;;6.90;99.90;;;;;;4899013;29;20183;-91
2022/01/18 10:55:03;;;;;;;10.80;5.70;;;6.90;99.90;;;;;;4898920;29;20191;-91
2022/01/18 10:57:38;;;;;;;13.10;5.90;;;6.90;99.90;;;;;;4898720;29;20347;-91
2022/01/18 11:00:21;;;;;;;14.20;5.97;;;7.00;99.90;;;;;;4889143;29;20259;-91
2022/01/18 11:02:50;;;;;;;17.37;6.40;;;7.00;99.90;;;;;;4900186;29;20262;-91
2022/01/18 11:05:25;;;;;;;14.23;5.80;;;7.10;99.90;;;;;;4899049;29;20230;-93
2022/01/18 11:07:53;;;;;;;15.83;6.17;;;7.10;99.90;;;;;;4899113;29;20202;-94
2022/01/18 11:10:21;;;;;;;14.10;5.30;;;7.10;99.90;;;;;;4899306;29;20184;-94
2022/01/18 11:13:04;;;;;;;14.90;5.50;;;7.10;99.90;;;;;;4898964;29;20194;-93
2022/01/18 11:15:32;;;;;;;11.20;5.53;;;7.20;99.90;;;;;;4899362;29;20235;-94
2022/01/18 11:18:05;;;;;;;16.90;6.30;;;7.20;99.90;;;;;;4897886;29;20180;-91
2022/01/18 11:20:42;;;;;;;17.60;5.60;;;7.40;99.90;;;;;;4899186;29;20198;-91
2022/01/18 11:23:09;;;;;;;14.37;6.07;;;7.40;99.90;;;;;;4898942;29;20203;-90
2022/01/18 11:25:37;;;;;;;15.07;5.30;;;7.40;99.90;;;;;;4898759;29;20206;-91
2022/01/18 11:28:07;;;;;;;13.33;5.40;;;7.40;99.90;;;;;;4898836;29;20291;-91
2022/01/18 11:30:36;;;;;;;18.20;5.53;;;7.40;99.90;;;;;;4899988;29;20181;-92
2022/01/18 11:33:06;;;;;;;14.60;5.80;;;7.40;99.90;;;;;;4898863;29;20175;-92
2022/01/18 11:35:54;;;;;;;13.87;4.93;;;7.40;99.90;;;;;;4898673;29;20270;-91
2022/01/18 11:38:34;;;;;;;9.60;4.00;;;7.40;99.90;;;;;;4895343;29;20267;-91
2022/01/18 11:41:02;;;;;;;18.13;4.47;;;7.60;99.90;;;;;;4880288;29;20593;-91
2022/01/18 11:43:41;;;;;;;25.70;7.17;;;7.60;99.90;;;;;;4898191;29;20203;-90
2022/01/18 11:46:32;;;;;;;13.97;5.60;;;7.60;99.90;;;;;;4898639;29;20195;-91
2022/01/18 11:49:05;;;;;;;14.47;4.53;;;7.60;99.90;;;;;;4898583;29;20203;-91
2022/01/18 11:51:44;;;;;;;12.37;4.27;;;7.60;99.90;;;;;;4897514;29;20187;-91
2022/01/18 11:57:26;;;;;;;13.40;4.03;;;7.60;99.90;;;;;;4882960;29;20191;-91
2022/01/18 11:59:52;;;;;;;11.97;4.80;;;7.60;99.90;;;;;;4897548;29;20286;-91
2022/01/18 12:02:42;;;;;;;11.83;3.93;;;7.60;99.90;;;;;;4902427;29;20294;-91
2022/01/18 12:05:19;;;;;;;17.37;4.80;;;7.60;99.90;;;;;;4901836;29;20528;-91
2022/01/18 12:07:47;;;;;;;13.63;3.83;;;7.60;99.90;;;;;;4891625;29;20247;-91
2022/01/18 12:10:28;;;;;;;14.33;3.53;;;7.60;99.90;;;;;;4889949;29;20306;-91
2022/01/18 12:12:55;;;;;;;12.07;3.33;;;7.60;99.90;;;;;;4902147;29;20185;-90
2022/01/18 12:15:23;;;;;;;13.50;3.07;;;7.60;99.90;;;;;;4901974;29;20598;-91
2022/01/18 12:17:54;;;;;;;9.30;2.57;;;7.60;99.90;;;;;;4902704;29;20187;-91
2022/01/18 12:20:35;;;;;;;10.47;2.70;;;7.60;99.90;;;;;;4901999;29;20192;-91
2022/01/18 12:23:08;;;;;;;12.03;3.10;;;7.60;99.90;;;;;;4902046;29;20179;-91
2022/01/18 12:26:01;;;;;;;11.10;2.97;;;7.70;99.90;;;;;;4901967;29;20247;-90
2022/01/18 12:28:46;;;;;;;12.17;2.90;;;7.70;99.90;;;;;;4902049;29;20282;-91
2022/01/18 12:36:54;;;;;;;11.67;3.00;;;7.70;99.90;;;;;;4902967;29;20202;-90
2022/01/18 12:39:20;;;;;;;13.67;2.90;;;7.70;99.90;;;;;;4901738;29;20186;-90
2022/01/18 12:41:52;;;;;;;14.80;3.90;;;7.70;99.90;;;;;;4902726;29;20512;-90
2022/01/18 12:44:20;;;;;;;13.37;4.00;;;7.70;99.90;;;;;;4901372;29;20230;-90
2022/01/18 12:46:56;;;;;;;15.20;3.73;;;7.70;99.90;;;;;;4901235;29;20267;-91
2022/01/18 12:49:22;;;;;;;12.13;3.03;;;7.70;99.90;;;;;;4901881;29;20273;-91
2022/01/18 12:51:58;;;;;;;13.33;3.00;;;7.70;99.90;;;;;;4889493;29;20282;-91
2022/01/18 12:54:42;;;;;;;14.97;2.90;;;7.70;99.90;;;;;;4901198;29;20274;-90
2022/01/18 12:57:26;;;;;;;11.47;3.40;;;7.70;99.90;;;;;;4901002;29;20183;-91
2022/01/18 13:00:14;;;;;;;13.70;3.20;;;7.60;99.90;;;;;;4901084;29;20686;-91
2022/01/18 13:02:45;;;;;;;11.70;2.60;;;7.60;99.90;;;;;;4901042;29;20542;-91
2022/01/18 13:05:12;;;;;;;16.33;3.30;;;7.60;99.90;;;;;;4889563;29;20668;-91
2022/01/18 13:07:52;;;;;;;12.77;2.80;;;7.70;99.90;;;;;;4899222;29;20283;-91
2022/01/18 13:10:18;;;;;;;11.43;3.23;;;7.60;99.90;;;;;;4900900;29;20186;-91
2022/01/18 13:12:45;;;;;;;10.50;2.30;;;7.60;99.90;;;;;;4900444;29;20222;-90
2022/01/18 13:15:13;;;;;;;9.87;2.80;;;7.60;99.90;;;;;;4900917;29;20180;-91
2022/01/18 13:23:22;;;;;;;12.97;2.67;;;7.60;99.90;;;;;;4901956;29;20307;-90
2022/01/18 13:25:53;;;;;;;15.07;3.37;;;7.60;99.90;;;;;;4900491;29;20199;-91
2022/01/18 13:28:19;;;;;;;13.17;2.70;;;7.60;99.90;;;;;;4900236;29;20663;-90
2022/01/18 13:30:45;;;;;;;14.43;3.53;;;7.60;99.90;;;;;;4900846;29;20198;-91
2022/01/18 13:33:12;;;;;;;14.53;2.67;;;7.50;99.90;;;;;;4900231;29;20504;-91
2022/01/18 13:35:38;;;;;;;14.47;2.97;;;7.50;99.90;;;;;;4900918;29;20593;-91
2022/01/18 13:38:04;;;;;;;14.90;2.63;;;7.50;99.90;;;;;;4900528;29;20207;-91
2022/01/18 13:40:30;;;;;;;13.60;2.63;;;7.50;99.90;;;;;;4900364;29;20199;-91
2022/01/18 13:43:07;;;;;;;16.43;3.17;;;7.50;99.90;;;;;;4900648;29;20523;-90
2022/01/18 13:45:35;;;;;;;15.97;3.10;;;7.50;99.90;;;;;;4899710;29;20230;-91
2022/01/18 13:48:10;;;;;;;13.70;2.50;;;7.40;99.90;;;;;;4900694;29;20206;-91
2022/01/18 13:50:45;;;;;;;13.23;3.23;;;7.40;99.90;;;;;;4900642;29;20175;-91
2022/01/18 13:53:29;;;;;;;11.80;2.10;;;7.40;99.90;;;;;;4899945;29;20218;-90
2022/01/18 13:56:00;;;;;;;17.13;3.07;;;7.60;99.90;;;;;;4894753;29;20192;-91
2022/01/18 13:58:29;;;;;;;16.13;2.43;;;7.60;99.90;;;;;;4896702;29;20243;-91
2022/01/18 14:01:20;;;;;;;15.80;2.70;;;7.60;99.90;;;;;;4899964;29;20214;-90
2022/01/18 14:03:52;;;;;;;11.50;2.40;;;7.70;99.90;;;;;;4900302;29;20219;-91
2022/01/18 14:06:19;;;;;;;16.03;3.17;;;7.60;99.90;;;;;;4899870;29;20179;-90
2022/01/18 14:08:52;;;;;;;17.07;3.13;;;7.60;99.90;;;;;;4900200;29;20210;-90
2022/01/18 14:11:29;;;;;;;21.80;3.77;;;7.50;99.90;;;;;;4900135;29;20207;-91
2022/01/18 14:13:55;;;;;;;25.00;3.53;;;7.40;99.90;;;;;;4899955;29;20207;-91
2022/01/18 14:16:33;;;;;;;14.33;3.27;;;7.40;99.90;;;;;;4899178;29;20247;-91
2022/01/18 14:19:08;;;;;;;15.20;3.53;;;7.40;99.90;;;;;;4887632;29;20623;-90
2022/01/18 14:21:37;;;;;;;20.83;3.97;;;7.30;99.90;;;;;;4881094;29;20278;-91
2022/01/18 14:24:21;;;;;;;17.67;3.57;;;7.20;99.90;;;;;;4881464;29;20224;-91